sensor_id;sensor_type;location;lat;lon;timestamp;P1;durP1;ratioP1;P2;durP2;ratioP2
83429;SDS011;73362;50.952;6.952;2023-12-20T00:01:56;15.87;;;12.00;;
83429;SDS011;73362;50.952;6.952;2023-12-20T00:04:24;15.87;;;11.00;;
83429;SDS011;73362;50.952;6.952;2023-12-20T00:06:52;17.50;;;12.43;;
83429;SDS011;73362;50.952;6.952;2023-12-20T00:09:20;18.67;;;13.20;;
83429;SDS011;73362;50.952;6.952;2023-12-20T00:11:48;16.70;;;12.33;;
83429;SDS011;73362;50.952;6.952;2023-12-20T00:14:17;15.03;;;11.23;;
83429;SDS011;73362;50.952;6.952;2023-12-20T00:16:46;16.90;;;11.83;;
83429;SDS011;73362;50.952;6.952;2023-12-20T00:19:14;15.90;;;11.63;;
83429;SDS011;73362;50.952;6.952;2023-12-20T00:21:43;15.40;;;11.10;;
83429;SDS011;73362;50.952;6.952;2023-12-20T00:24:11;14.50;;;10.97;;
83429;SDS011;73362;50.952;6.952;2023-12-20T00:26:39;15.97;;;11.17;;
83429;SDS011;73362;50.952;6.952;2023-12-20T00:29:07;13.87;;;10.33;;
83429;SDS011;73362;50.952;6.952;2023-12-20T00:31:35;14.57;;;10.07;;
83429;SDS011;73362;50.952;6.952;2023-12-20T00:34:03;12.40;;;8.40;;
83429;SDS011;73362;50.952;6.952;2023-12-20T00:36:31;11.13;;;8.17;;
83429;SDS011;73362;50.952;6.952;2023-12-20T00:38:59;9.83;;;7.93;;
83429;SDS011;73362;50.952;6.952;2023-12-20T00:41:27;8.10;;;5.93;;
83429;SDS011;73362;50.952;6.952;2023-12-20T00:43:55;8.47;;;5.87;;
83429;SDS011;73362;50.952;6.952;2023-12-20T00:46:23;9.80;;;7.00;;
83429;SDS011;73362;50.952;6.952;2023-12-20T00:48:51;9.27;;;5.53;;
83429;SDS011;73362;50.952;6.952;2023-12-20T00:51:20;8.40;;;5.83;;
83429;SDS011;73362;50.952;6.952;2023-12-20T00:53:50;7.30;;;5.57;;
83429;SDS011;73362;50.952;6.952;2023-12-20T00:56:15;9.90;;;6.30;;
83429;SDS011;73362;50.952;6.952;2023-12-20T00:58:43;7.80;;;6.30;;
83429;SDS011;73362;50.952;6.952;2023-12-20T01:01:11;8.47;;;6.57;;
83429;SDS011;73362;50.952;6.952;2023-12-20T01:03:39;9.90;;;6.50;;
83429;SDS011;73362;50.952;6.952;2023-12-20T01:06:07;11.53;;;6.80;;
83429;SDS011;73362;50.952;6.952;2023-12-20T01:08:36;9.13;;;6.03;;
83429;SDS011;73362;50.952;6.952;2023-12-20T01:11:04;10.70;;;6.60;;
83429;SDS011;73362;50.952;6.952;2023-12-20T01:13:31;8.83;;;5.87;;
83429;SDS011;73362;50.952;6.952;2023-12-20T01:16:00;10.90;;;6.93;;
83429;SDS011;73362;50.952;6.952;2023-12-20T01:18:28;8.90;;;6.17;;
83429;SDS011;73362;50.952;6.952;2023-12-20T01:20:56;9.33;;;5.90;;
83429;SDS011;73362;50.952;6.952;2023-12-20T01:23:24;8.67;;;6.20;;
83429;SDS011;73362;50.952;6.952;2023-12-20T01:25:52;9.53;;;6.13;;
83429;SDS011;73362;50.952;6.952;2023-12-20T01:28:20;12.30;;;6.50;;
83429;SDS011;73362;50.952;6.952;2023-12-20T01:30:48;14.43;;;6.67;;
83429;SDS011;73362;50.952;6.952;2023-12-20T01:33:16;12.13;;;7.03;;
83429;SDS011;73362;50.952;6.952;2023-12-20T01:35:44;19.07;;;7.60;;
83429;SDS011;73362;50.952;6.952;2023-12-20T01:38:12;12.70;;;7.50;;
83429;SDS011;73362;50.952;6.952;2023-12-20T01:40:40;13.67;;;8.20;;
83429;SDS011;73362;50.952;6.952;2023-12-20T01:43:08;15.53;;;9.33;;
83429;SDS011;73362;50.952;6.952;2023-12-20T01:45:36;18.23;;;9.47;;
83429;SDS011;73362;50.952;6.952;2023-12-20T01:48:04;17.40;;;9.87;;
83429;SDS011;73362;50.952;6.952;2023-12-20T01:50:32;20.97;;;10.57;;
83429;SDS011;73362;50.952;6.952;2023-12-20T01:53:00;17.53;;;10.37;;
83429;SDS011;73362;50.952;6.952;2023-12-20T01:55:29;17.83;;;10.27;;
83429;SDS011;73362;50.952;6.952;2023-12-20T01:57:56;19.17;;;10.57;;
83429;SDS011;73362;50.952;6.952;2023-12-20T02:00:25;17.63;;;11.43;;
83429;SDS011;73362;50.952;6.952;2023-12-20T02:02:53;17.60;;;10.97;;
83429;SDS011;73362;50.952;6.952;2023-12-20T02:05:21;18.87;;;12.07;;
83429;SDS011;73362;50.952;6.952;2023-12-20T02:07:48;20.37;;;10.97;;
83429;SDS011;73362;50.952;6.952;2023-12-20T02:10:16;17.40;;;10.63;;
83429;SDS011;73362;50.952;6.952;2023-12-20T02:12:45;18.67;;;11.00;;
83429;SDS011;73362;50.952;6.952;2023-12-20T02:15:13;21.80;;;11.90;;
83429;SDS011;73362;50.952;6.952;2023-12-20T02:17:41;16.90;;;10.30;;
83429;SDS011;73362;50.952;6.952;2023-12-20T02:20:09;22.97;;;11.07;;
83429;SDS011;73362;50.952;6.952;2023-12-20T02:22:37;20.23;;;9.87;;
83429;SDS011;73362;50.952;6.952;2023-12-20T02:25:05;13.07;;;7.70;;
83429;SDS011;73362;50.952;6.952;2023-12-20T02:27:34;19.50;;;9.63;;
83429;SDS011;73362;50.952;6.952;2023-12-20T02:30:01;14.33;;;7.70;;
83429;SDS011;73362;50.952;6.952;2023-12-20T02:32:29;15.20;;;7.07;;
83429;SDS011;73362;50.952;6.952;2023-12-20T02:34:57;11.30;;;6.37;;
83429;SDS011;73362;50.952;6.952;2023-12-20T02:37:25;14.40;;;6.17;;
83429;SDS011;73362;50.952;6.952;2023-12-20T02:39:53;14.00;;;5.93;;
83429;SDS011;73362;50.952;6.952;2023-12-20T02:42:22;19.67;;;5.87;;
83429;SDS011;73362;50.952;6.952;2023-12-20T02:44:50;19.40;;;5.83;;
83429;SDS011;73362;50.952;6.952;2023-12-20T02:47:18;12.10;;;5.10;;
83429;SDS011;73362;50.952;6.952;2023-12-20T02:49:46;11.30;;;5.80;;
83429;SDS011;73362;50.952;6.952;2023-12-20T02:52:14;18.13;;;5.77;;
83429;SDS011;73362;50.952;6.952;2023-12-20T02:54:42;17.03;;;5.43;;
83429;SDS011;73362;50.952;6.952;2023-12-20T02:57:10;13.63;;;4.80;;
83429;SDS011;73362;50.952;6.952;2023-12-20T02:59:38;9.87;;;3.77;;
83429;SDS011;73362;50.952;6.952;2023-12-20T03:02:06;10.67;;;3.57;;
83429;SDS011;73362;50.952;6.952;2023-12-20T03:04:34;14.50;;;3.23;;
83429;SDS011;73362;50.952;6.952;2023-12-20T03:07:02;13.83;;;3.20;;
83429;SDS011;73362;50.952;6.952;2023-12-20T03:09:30;10.90;;;3.07;;
83429;SDS011;73362;50.952;6.952;2023-12-20T03:11:58;10.00;;;2.77;;
83429;SDS011;73362;50.952;6.952;2023-12-20T03:14:26;9.90;;;2.50;;
83429;SDS011;73362;50.952;6.952;2023-12-20T03:16:54;10.37;;;2.53;;
83429;SDS011;73362;50.952;6.952;2023-12-20T03:19:22;12.47;;;2.70;;
83429;SDS011;73362;50.952;6.952;2023-12-20T03:21:50;10.60;;;2.93;;
83429;SDS011;73362;50.952;6.952;2023-12-20T03:24:18;15.00;;;2.80;;
83429;SDS011;73362;50.952;6.952;2023-12-20T03:26:46;11.83;;;3.57;;
83429;SDS011;73362;50.952;6.952;2023-12-20T03:29:14;9.93;;;2.83;;
83429;SDS011;73362;50.952;6.952;2023-12-20T03:31:42;10.97;;;2.60;;
83429;SDS011;73362;50.952;6.952;2023-12-20T03:34:10;13.20;;;3.13;;
83429;SDS011;73362;50.952;6.952;2023-12-20T03:36:38;10.90;;;3.40;;
83429;SDS011;73362;50.952;6.952;2023-12-20T03:39:06;11.87;;;2.93;;
83429;SDS011;73362;50.952;6.952;2023-12-20T03:41:34;8.13;;;2.37;;
83429;SDS011;73362;50.952;6.952;2023-12-20T03:44:02;11.70;;;3.00;;
83429;SDS011;73362;50.952;6.952;2023-12-20T03:46:30;11.10;;;3.30;;
83429;SDS011;73362;50.952;6.952;2023-12-20T03:48:58;13.47;;;3.10;;
83429;SDS011;73362;50.952;6.952;2023-12-20T03:51:26;15.13;;;3.17;;
83429;SDS011;73362;50.952;6.952;2023-12-20T03:53:54;17.10;;;3.20;;
83429;SDS011;73362;50.952;6.952;2023-12-20T03:56:22;15.20;;;3.40;;
83429;SDS011;73362;50.952;6.952;2023-12-20T03:58:51;14.50;;;3.33;;
83429;SDS011;73362;50.952;6.952;2023-12-20T04:01:19;13.43;;;3.40;;
83429;SDS011;73362;50.952;6.952;2023-12-20T04:03:47;14.07;;;3.43;;
83429;SDS011;73362;50.952;6.952;2023-12-20T04:06:17;12.47;;;3.27;;
83429;SDS011;73362;50.952;6.952;2023-12-20T04:08:44;9.90;;;3.17;;
83429;SDS011;73362;50.952;6.952;2023-12-20T04:11:13;15.03;;;3.70;;
83429;SDS011;73362;50.952;6.952;2023-12-20T04:13:41;9.20;;;3.20;;
83429;SDS011;73362;50.952;6.952;2023-12-20T04:16:09;11.70;;;3.20;;
83429;SDS011;73362;50.952;6.952;2023-12-20T04:18:37;14.03;;;3.40;;
83429;SDS011;73362;50.952;6.952;2023-12-20T04:21:05;7.80;;;2.93;;
83429;SDS011;73362;50.952;6.952;2023-12-20T04:23:33;12.23;;;3.43;;
83429;SDS011;73362;50.952;6.952;2023-12-20T04:26:01;10.73;;;3.50;;
83429;SDS011;73362;50.952;6.952;2023-12-20T04:28:29;14.03;;;4.20;;
83429;SDS011;73362;50.952;6.952;2023-12-20T04:30:58;12.20;;;3.40;;
83429;SDS011;73362;50.952;6.952;2023-12-20T04:33:26;9.87;;;3.47;;
83429;SDS011;73362;50.952;6.952;2023-12-20T04:35:54;14.83;;;3.70;;
83429;SDS011;73362;50.952;6.952;2023-12-20T04:38:23;17.17;;;4.47;;
83429;SDS011;73362;50.952;6.952;2023-12-20T04:40:51;13.33;;;3.47;;
83429;SDS011;73362;50.952;6.952;2023-12-20T04:43:19;12.57;;;3.40;;
83429;SDS011;73362;50.952;6.952;2023-12-20T04:45:47;12.13;;;3.47;;
83429;SDS011;73362;50.952;6.952;2023-12-20T04:48:15;15.40;;;3.50;;
83429;SDS011;73362;50.952;6.952;2023-12-20T04:50:43;9.53;;;3.63;;
83429;SDS011;73362;50.952;6.952;2023-12-20T04:53:11;17.03;;;4.20;;
83429;SDS011;73362;50.952;6.952;2023-12-20T04:55:39;11.73;;;3.67;;
83429;SDS011;73362;50.952;6.952;2023-12-20T04:58:07;10.87;;;3.23;;
83429;SDS011;73362;50.952;6.952;2023-12-20T05:00:35;10.90;;;3.77;;
83429;SDS011;73362;50.952;6.952;2023-12-20T05:03:03;18.17;;;3.80;;
83429;SDS011;73362;50.952;6.952;2023-12-20T05:05:31;10.90;;;3.90;;
83429;SDS011;73362;50.952;6.952;2023-12-20T05:07:59;15.87;;;3.67;;
83429;SDS011;73362;50.952;6.952;2023-12-20T05:10:27;13.40;;;3.97;;
83429;SDS011;73362;50.952;6.952;2023-12-20T05:12:55;15.77;;;3.90;;
83429;SDS011;73362;50.952;6.952;2023-12-20T05:15:23;15.23;;;4.80;;
83429;SDS011;73362;50.952;6.952;2023-12-20T05:17:51;12.60;;;3.83;;
83429;SDS011;73362;50.952;6.952;2023-12-20T05:20:19;13.33;;;3.77;;
83429;SDS011;73362;50.952;6.952;2023-12-20T05:22:48;10.87;;;3.73;;
83429;SDS011;73362;50.952;6.952;2023-12-20T05:25:17;11.17;;;4.00;;
83429;SDS011;73362;50.952;6.952;2023-12-20T05:27:45;9.90;;;3.87;;
83429;SDS011;73362;50.952;6.952;2023-12-20T05:30:13;15.83;;;4.07;;
83429;SDS011;73362;50.952;6.952;2023-12-20T05:32:41;9.33;;;3.97;;
83429;SDS011;73362;50.952;6.952;2023-12-20T05:35:09;13.67;;;3.63;;
83429;SDS011;73362;50.952;6.952;2023-12-20T05:37:37;12.03;;;3.67;;
83429;SDS011;73362;50.952;6.952;2023-12-20T05:40:05;13.53;;;3.77;;
83429;SDS011;73362;50.952;6.952;2023-12-20T05:42:33;11.33;;;3.40;;
83429;SDS011;73362;50.952;6.952;2023-12-20T05:45:01;13.93;;;4.10;;
83429;SDS011;73362;50.952;6.952;2023-12-20T05:47:30;12.60;;;4.00;;
83429;SDS011;73362;50.952;6.952;2023-12-20T05:49:58;12.60;;;4.27;;
83429;SDS011;73362;50.952;6.952;2023-12-20T05:52:26;11.53;;;4.07;;
83429;SDS011;73362;50.952;6.952;2023-12-20T05:54:54;9.80;;;3.30;;
83429;SDS011;73362;50.952;6.952;2023-12-20T05:57:22;11.93;;;4.10;;
83429;SDS011;73362;50.952;6.952;2023-12-20T05:59:50;13.40;;;3.90;;
83429;SDS011;73362;50.952;6.952;2023-12-20T06:02:18;11.60;;;4.10;;
83429;SDS011;73362;50.952;6.952;2023-12-20T06:04:46;12.63;;;3.87;;
83429;SDS011;73362;50.952;6.952;2023-12-20T06:07:14;11.30;;;3.40;;
83429;SDS011;73362;50.952;6.952;2023-12-20T06:09:42;17.20;;;3.60;;
83429;SDS011;73362;50.952;6.952;2023-12-20T06:12:10;14.10;;;3.80;;
83429;SDS011;73362;50.952;6.952;2023-12-20T06:14:38;16.50;;;3.60;;
83429;SDS011;73362;50.952;6.952;2023-12-20T06:17:06;14.63;;;4.20;;
83429;SDS011;73362;50.952;6.952;2023-12-20T06:19:34;10.43;;;3.53;;
83429;SDS011;73362;50.952;6.952;2023-12-20T06:22:02;15.00;;;4.13;;
83429;SDS011;73362;50.952;6.952;2023-12-20T06:24:30;13.20;;;4.13;;
83429;SDS011;73362;50.952;6.952;2023-12-20T06:26:58;12.27;;;3.83;;
83429;SDS011;73362;50.952;6.952;2023-12-20T06:29:26;13.63;;;4.10;;
83429;SDS011;73362;50.952;6.952;2023-12-20T06:31:54;20.37;;;4.40;;
83429;SDS011;73362;50.952;6.952;2023-12-20T06:34:22;12.67;;;3.73;;
83429;SDS011;73362;50.952;6.952;2023-12-20T06:36:51;11.07;;;4.03;;
83429;SDS011;73362;50.952;6.952;2023-12-20T06:39:19;12.13;;;4.20;;
83429;SDS011;73362;50.952;6.952;2023-12-20T06:41:47;15.13;;;4.57;;
83429;SDS011;73362;50.952;6.952;2023-12-20T06:44:15;15.17;;;3.73;;
83429;SDS011;73362;50.952;6.952;2023-12-20T06:46:43;16.77;;;4.30;;
83429;SDS011;73362;50.952;6.952;2023-12-20T06:49:11;16.40;;;4.87;;
83429;SDS011;73362;50.952;6.952;2023-12-20T06:51:39;13.63;;;3.73;;
83429;SDS011;73362;50.952;6.952;2023-12-20T06:54:07;16.60;;;3.90;;
83429;SDS011;73362;50.952;6.952;2023-12-20T06:56:35;11.70;;;3.60;;
83429;SDS011;73362;50.952;6.952;2023-12-20T06:59:03;14.30;;;3.90;;
83429;SDS011;73362;50.952;6.952;2023-12-20T07:01:31;14.93;;;3.67;;
83429;SDS011;73362;50.952;6.952;2023-12-20T07:03:59;13.60;;;3.50;;
83429;SDS011;73362;50.952;6.952;2023-12-20T07:06:27;13.20;;;3.90;;
83429;SDS011;73362;50.952;6.952;2023-12-20T07:08:55;13.63;;;3.43;;
83429;SDS011;73362;50.952;6.952;2023-12-20T07:11:23;12.77;;;3.70;;
83429;SDS011;73362;50.952;6.952;2023-12-20T07:13:51;8.30;;;3.27;;
83429;SDS011;73362;50.952;6.952;2023-12-20T07:16:19;13.17;;;3.50;;
83429;SDS011;73362;50.952;6.952;2023-12-20T07:18:47;18.17;;;3.73;;
83429;SDS011;73362;50.952;6.952;2023-12-20T07:21:15;17.00;;;3.90;;
83429;SDS011;73362;50.952;6.952;2023-12-20T07:23:43;16.87;;;3.97;;
83429;SDS011;73362;50.952;6.952;2023-12-20T07:26:11;9.23;;;3.80;;
83429;SDS011;73362;50.952;6.952;2023-12-20T07:28:39;11.23;;;3.33;;
83429;SDS011;73362;50.952;6.952;2023-12-20T07:31:07;10.30;;;3.43;;
83429;SDS011;73362;50.952;6.952;2023-12-20T07:33:35;10.40;;;3.60;;
83429;SDS011;73362;50.952;6.952;2023-12-20T07:36:03;11.37;;;3.50;;
83429;SDS011;73362;50.952;6.952;2023-12-20T07:38:31;10.17;;;3.60;;
83429;SDS011;73362;50.952;6.952;2023-12-20T07:41:00;12.23;;;3.83;;
83429;SDS011;73362;50.952;6.952;2023-12-20T07:43:28;13.40;;;4.17;;
83429;SDS011;73362;50.952;6.952;2023-12-20T07:45:56;16.87;;;4.57;;
83429;SDS011;73362;50.952;6.952;2023-12-20T07:48:24;14.73;;;4.30;;
83429;SDS011;73362;50.952;6.952;2023-12-20T07:50:52;16.60;;;4.70;;
83429;SDS011;73362;50.952;6.952;2023-12-20T07:53:20;16.50;;;4.40;;
83429;SDS011;73362;50.952;6.952;2023-12-20T07:55:48;11.67;;;4.57;;
83429;SDS011;73362;50.952;6.952;2023-12-20T07:58:16;15.90;;;5.43;;
83429;SDS011;73362;50.952;6.952;2023-12-20T08:00:44;16.03;;;4.53;;
83429;SDS011;73362;50.952;6.952;2023-12-20T08:03:12;14.63;;;4.23;;
83429;SDS011;73362;50.952;6.952;2023-12-20T08:05:40;15.00;;;4.53;;
83429;SDS011;73362;50.952;6.952;2023-12-20T08:08:08;11.27;;;4.10;;
83429;SDS011;73362;50.952;6.952;2023-12-20T08:10:36;12.93;;;5.17;;
83429;SDS011;73362;50.952;6.952;2023-12-20T08:13:04;17.23;;;4.93;;
83429;SDS011;73362;50.952;6.952;2023-12-20T08:15:32;15.07;;;4.73;;
83429;SDS011;73362;50.952;6.952;2023-12-20T08:18:00;10.13;;;4.20;;
83429;SDS011;73362;50.952;6.952;2023-12-20T08:20:28;14.23;;;4.63;;
83429;SDS011;73362;50.952;6.952;2023-12-20T08:22:56;9.87;;;3.93;;
83429;SDS011;73362;50.952;6.952;2023-12-20T08:25:24;14.20;;;4.43;;
83429;SDS011;73362;50.952;6.952;2023-12-20T08:27:52;12.80;;;3.30;;
83429;SDS011;73362;50.952;6.952;2023-12-20T08:30:20;11.67;;;4.50;;
83429;SDS011;73362;50.952;6.952;2023-12-20T08:32:48;12.43;;;4.27;;
83429;SDS011;73362;50.952;6.952;2023-12-20T08:35:16;12.33;;;4.17;;
83429;SDS011;73362;50.952;6.952;2023-12-20T08:37:44;16.27;;;4.27;;
83429;SDS011;73362;50.952;6.952;2023-12-20T08:40:13;10.13;;;3.60;;
83429;SDS011;73362;50.952;6.952;2023-12-20T08:42:41;10.57;;;3.60;;
83429;SDS011;73362;50.952;6.952;2023-12-20T08:45:09;12.43;;;3.80;;
83429;SDS011;73362;50.952;6.952;2023-12-20T08:47:37;13.83;;;4.53;;
83429;SDS011;73362;50.952;6.952;2023-12-20T08:50:05;14.80;;;4.13;;
83429;SDS011;73362;50.952;6.952;2023-12-20T08:52:33;13.83;;;3.73;;
83429;SDS011;73362;50.952;6.952;2023-12-20T08:55:01;14.40;;;3.70;;
83429;SDS011;73362;50.952;6.952;2023-12-20T08:57:29;13.93;;;3.70;;
83429;SDS011;73362;50.952;6.952;2023-12-20T08:59:57;9.60;;;3.93;;
83429;SDS011;73362;50.952;6.952;2023-12-20T09:02:25;10.47;;;3.40;;
83429;SDS011;73362;50.952;6.952;2023-12-20T09:04:53;12.13;;;3.57;;
83429;SDS011;73362;50.952;6.952;2023-12-20T09:07:22;11.63;;;4.10;;
83429;SDS011;73362;50.952;6.952;2023-12-20T09:09:50;15.13;;;3.87;;
83429;SDS011;73362;50.952;6.952;2023-12-20T09:12:18;12.77;;;3.70;;
83429;SDS011;73362;50.952;6.952;2023-12-20T09:14:46;13.53;;;3.93;;
83429;SDS011;73362;50.952;6.952;2023-12-20T09:17:14;12.50;;;3.33;;
83429;SDS011;73362;50.952;6.952;2023-12-20T09:19:42;15.60;;;3.60;;
83429;SDS011;73362;50.952;6.952;2023-12-20T09:22:10;13.80;;;3.90;;
83429;SDS011;73362;50.952;6.952;2023-12-20T09:24:38;15.27;;;3.60;;
83429;SDS011;73362;50.952;6.952;2023-12-20T09:27:11;11.40;;;3.33;;
83429;SDS011;73362;50.952;6.952;2023-12-20T09:29:39;16.37;;;3.40;;
83429;SDS011;73362;50.952;6.952;2023-12-20T09:32:07;15.07;;;3.50;;
83429;SDS011;73362;50.952;6.952;2023-12-20T09:34:35;9.50;;;3.60;;
83429;SDS011;73362;50.952;6.952;2023-12-20T09:37:03;10.43;;;3.20;;
83429;SDS011;73362;50.952;6.952;2023-12-20T09:39:32;13.30;;;3.33;;
83429;SDS011;73362;50.952;6.952;2023-12-20T09:42:00;13.90;;;3.10;;
83429;SDS011;73362;50.952;6.952;2023-12-20T09:44:28;11.83;;;3.43;;
83429;SDS011;73362;50.952;6.952;2023-12-20T09:46:56;14.40;;;3.40;;
83429;SDS011;73362;50.952;6.952;2023-12-20T09:49:24;11.70;;;3.30;;
83429;SDS011;73362;50.952;6.952;2023-12-20T09:51:54;10.93;;;3.27;;
83429;SDS011;73362;50.952;6.952;2023-12-20T09:54:20;13.43;;;3.60;;
83429;SDS011;73362;50.952;6.952;2023-12-20T09:56:48;14.10;;;3.20;;
83429;SDS011;73362;50.952;6.952;2023-12-20T09:59:16;15.70;;;3.90;;
83429;SDS011;73362;50.952;6.952;2023-12-20T10:01:44;12.33;;;3.47;;
83429;SDS011;73362;50.952;6.952;2023-12-20T10:04:13;9.77;;;2.63;;
83429;SDS011;73362;50.952;6.952;2023-12-20T10:06:42;9.23;;;3.00;;
83429;SDS011;73362;50.952;6.952;2023-12-20T10:09:10;9.30;;;2.90;;
83429;SDS011;73362;50.952;6.952;2023-12-20T10:11:37;11.90;;;3.07;;
83429;SDS011;73362;50.952;6.952;2023-12-20T10:14:06;15.30;;;3.47;;
83429;SDS011;73362;50.952;6.952;2023-12-20T10:16:33;10.23;;;3.13;;
83429;SDS011;73362;50.952;6.952;2023-12-20T10:19:01;11.40;;;2.73;;
83429;SDS011;73362;50.952;6.952;2023-12-20T10:21:29;10.67;;;2.87;;
83429;SDS011;73362;50.952;6.952;2023-12-20T10:23:57;9.67;;;3.03;;
83429;SDS011;73362;50.952;6.952;2023-12-20T10:26:26;10.80;;;2.90;;
83429;SDS011;73362;50.952;6.952;2023-12-20T10:28:54;10.50;;;2.80;;
83429;SDS011;73362;50.952;6.952;2023-12-20T10:31:27;8.60;;;2.93;;
83429;SDS011;73362;50.952;6.952;2023-12-20T10:33:55;8.83;;;3.07;;
83429;SDS011;73362;50.952;6.952;2023-12-20T10:36:23;14.27;;;3.07;;
83429;SDS011;73362;50.952;6.952;2023-12-20T10:38:51;8.63;;;2.90;;
83429;SDS011;73362;50.952;6.952;2023-12-20T10:41:22;12.13;;;2.90;;
83429;SDS011;73362;50.952;6.952;2023-12-20T10:43:48;9.40;;;2.70;;
83429;SDS011;73362;50.952;6.952;2023-12-20T10:46:16;8.60;;;2.67;;
83429;SDS011;73362;50.952;6.952;2023-12-20T10:48:44;10.67;;;2.97;;
83429;SDS011;73362;50.952;6.952;2023-12-20T10:51:13;10.63;;;3.03;;
83429;SDS011;73362;50.952;6.952;2023-12-20T10:53:40;9.63;;;2.67;;
83429;SDS011;73362;50.952;6.952;2023-12-20T10:56:08;14.17;;;2.77;;
83429;SDS011;73362;50.952;6.952;2023-12-20T10:58:36;12.33;;;2.80;;
83429;SDS011;73362;50.952;6.952;2023-12-20T11:01:04;8.53;;;2.90;;
83429;SDS011;73362;50.952;6.952;2023-12-20T11:03:32;9.27;;;3.03;;
83429;SDS011;73362;50.952;6.952;2023-12-20T11:06:03;13.20;;;3.30;;
83429;SDS011;73362;50.952;6.952;2023-12-20T11:08:31;14.80;;;3.80;;
83429;SDS011;73362;50.952;6.952;2023-12-20T11:10:59;12.13;;;3.23;;
83429;SDS011;73362;50.952;6.952;2023-12-20T11:13:29;10.70;;;3.00;;
83429;SDS011;73362;50.952;6.952;2023-12-20T11:15:55;9.23;;;3.60;;
83429;SDS011;73362;50.952;6.952;2023-12-20T11:18:28;10.77;;;2.67;;
83429;SDS011;73362;50.952;6.952;2023-12-20T11:21:00;10.27;;;3.23;;
83429;SDS011;73362;50.952;6.952;2023-12-20T11:23:24;12.73;;;3.13;;
83429;SDS011;73362;50.952;6.952;2023-12-20T11:25:52;7.53;;;2.47;;
83429;SDS011;73362;50.952;6.952;2023-12-20T11:28:20;12.20;;;2.90;;
83429;SDS011;73362;50.952;6.952;2023-12-20T11:30:51;6.47;;;2.90;;
83429;SDS011;73362;50.952;6.952;2023-12-20T11:33:21;11.70;;;3.03;;
83429;SDS011;73362;50.952;6.952;2023-12-20T11:35:49;11.53;;;2.80;;
83429;SDS011;73362;50.952;6.952;2023-12-20T11:38:17;9.97;;;2.77;;
83429;SDS011;73362;50.952;6.952;2023-12-20T11:40:45;11.80;;;2.60;;
83429;SDS011;73362;50.952;6.952;2023-12-20T11:43:13;9.93;;;3.00;;
83429;SDS011;73362;50.952;6.952;2023-12-20T11:45:48;11.10;;;2.77;;
83429;SDS011;73362;50.952;6.952;2023-12-20T11:48:09;10.67;;;2.67;;
83429;SDS011;73362;50.952;6.952;2023-12-20T11:50:38;11.03;;;3.13;;
83429;SDS011;73362;50.952;6.952;2023-12-20T11:53:07;7.63;;;2.40;;
83429;SDS011;73362;50.952;6.952;2023-12-20T11:55:35;10.60;;;2.77;;
83429;SDS011;73362;50.952;6.952;2023-12-20T11:58:03;12.17;;;2.60;;
83429;SDS011;73362;50.952;6.952;2023-12-20T12:00:31;11.17;;;2.90;;
83429;SDS011;73362;50.952;6.952;2023-12-20T12:02:59;10.43;;;2.90;;
83429;SDS011;73362;50.952;6.952;2023-12-20T12:05:27;6.27;;;2.50;;
83429;SDS011;73362;50.952;6.952;2023-12-20T12:07:55;7.53;;;2.83;;
83429;SDS011;73362;50.952;6.952;2023-12-20T12:10:23;10.23;;;2.80;;
83429;SDS011;73362;50.952;6.952;2023-12-20T12:12:51;9.93;;;3.07;;
83429;SDS011;73362;50.952;6.952;2023-12-20T12:15:19;13.63;;;3.60;;
83429;SDS011;73362;50.952;6.952;2023-12-20T12:17:52;13.43;;;3.53;;
83429;SDS011;73362;50.952;6.952;2023-12-20T12:20:20;8.27;;;3.10;;
83429;SDS011;73362;50.952;6.952;2023-12-20T12:25:22;10.07;;;3.20;;
83429;SDS011;73362;50.952;6.952;2023-12-20T12:27:50;11.40;;;3.30;;
83429;SDS011;73362;50.952;6.952;2023-12-20T12:30:18;7.67;;;3.07;;
83429;SDS011;73362;50.952;6.952;2023-12-20T12:32:46;10.90;;;3.13;;
83429;SDS011;73362;50.952;6.952;2023-12-20T12:35:14;12.10;;;3.40;;
83429;SDS011;73362;50.952;6.952;2023-12-20T12:37:42;12.17;;;3.03;;
83429;SDS011;73362;50.952;6.952;2023-12-20T12:40:10;15.17;;;3.40;;
83429;SDS011;73362;50.952;6.952;2023-12-20T12:42:39;7.67;;;2.83;;
83429;SDS011;73362;50.952;6.952;2023-12-20T12:45:07;13.80;;;3.10;;
83429;SDS011;73362;50.952;6.952;2023-12-20T12:47:35;10.77;;;3.10;;
83429;SDS011;73362;50.952;6.952;2023-12-20T12:50:03;11.37;;;3.00;;
83429;SDS011;73362;50.952;6.952;2023-12-20T12:52:31;9.13;;;3.23;;
83429;SDS011;73362;50.952;6.952;2023-12-20T12:54:59;12.77;;;3.37;;
83429;SDS011;73362;50.952;6.952;2023-12-20T12:57:27;10.00;;;3.37;;
83429;SDS011;73362;50.952;6.952;2023-12-20T12:59:55;10.60;;;3.27;;
83429;SDS011;73362;50.952;6.952;2023-12-20T13:02:23;10.87;;;3.33;;
83429;SDS011;73362;50.952;6.952;2023-12-20T13:04:51;13.97;;;3.87;;
83429;SDS011;73362;50.952;6.952;2023-12-20T13:07:19;10.33;;;3.40;;
83429;SDS011;73362;50.952;6.952;2023-12-20T13:09:47;12.77;;;3.43;;
83429;SDS011;73362;50.952;6.952;2023-12-20T13:12:15;9.23;;;3.23;;
83429;SDS011;73362;50.952;6.952;2023-12-20T13:14:43;8.20;;;3.10;;
83429;SDS011;73362;50.952;6.952;2023-12-20T13:17:11;10.13;;;3.97;;
83429;SDS011;73362;50.952;6.952;2023-12-20T13:19:39;9.10;;;3.30;;
83429;SDS011;73362;50.952;6.952;2023-12-20T13:22:07;10.83;;;3.43;;
83429;SDS011;73362;50.952;6.952;2023-12-20T13:24:35;12.53;;;3.43;;
83429;SDS011;73362;50.952;6.952;2023-12-20T13:27:04;9.67;;;3.40;;
83429;SDS011;73362;50.952;6.952;2023-12-20T13:29:32;10.87;;;3.67;;
83429;SDS011;73362;50.952;6.952;2023-12-20T13:32:00;10.87;;;3.40;;
83429;SDS011;73362;50.952;6.952;2023-12-20T13:34:28;8.07;;;3.00;;
83429;SDS011;73362;50.952;6.952;2023-12-20T13:36:56;7.80;;;2.70;;
83429;SDS011;73362;50.952;6.952;2023-12-20T13:39:24;10.20;;;3.43;;
83429;SDS011;73362;50.952;6.952;2023-12-20T13:41:52;12.13;;;3.77;;
83429;SDS011;73362;50.952;6.952;2023-12-20T13:44:20;8.90;;;3.23;;
83429;SDS011;73362;50.952;6.952;2023-12-20T13:46:48;15.10;;;3.33;;
83429;SDS011;73362;50.952;6.952;2023-12-20T13:49:16;9.37;;;3.30;;
83429;SDS011;73362;50.952;6.952;2023-12-20T13:51:44;8.30;;;3.10;;
83429;SDS011;73362;50.952;6.952;2023-12-20T13:54:12;8.70;;;3.03;;
83429;SDS011;73362;50.952;6.952;2023-12-20T13:56:40;12.83;;;3.50;;
83429;SDS011;73362;50.952;6.952;2023-12-20T13:59:08;11.73;;;3.53;;
83429;SDS011;73362;50.952;6.952;2023-12-20T14:01:36;6.33;;;2.50;;
83429;SDS011;73362;50.952;6.952;2023-12-20T14:04:04;8.07;;;2.80;;
83429;SDS011;73362;50.952;6.952;2023-12-20T14:06:33;9.30;;;3.17;;
83429;SDS011;73362;50.952;6.952;2023-12-20T14:09:00;7.33;;;2.70;;
83429;SDS011;73362;50.952;6.952;2023-12-20T14:11:28;9.47;;;3.23;;
83429;SDS011;73362;50.952;6.952;2023-12-20T14:13:57;7.17;;;2.77;;
83429;SDS011;73362;50.952;6.952;2023-12-20T14:16:25;9.33;;;2.87;;
83429;SDS011;73362;50.952;6.952;2023-12-20T14:18:53;9.93;;;2.83;;
83429;SDS011;73362;50.952;6.952;2023-12-20T14:21:21;9.90;;;3.07;;
83429;SDS011;73362;50.952;6.952;2023-12-20T14:23:49;10.17;;;3.20;;
83429;SDS011;73362;50.952;6.952;2023-12-20T14:26:17;7.83;;;3.20;;
83429;SDS011;73362;50.952;6.952;2023-12-20T14:28:45;8.53;;;2.70;;
83429;SDS011;73362;50.952;6.952;2023-12-20T14:31:13;8.97;;;3.20;;
83429;SDS011;73362;50.952;6.952;2023-12-20T14:33:41;11.93;;;3.20;;
83429;SDS011;73362;50.952;6.952;2023-12-20T14:36:09;7.80;;;2.70;;
83429;SDS011;73362;50.952;6.952;2023-12-20T14:38:37;10.33;;;3.10;;
83429;SDS011;73362;50.952;6.952;2023-12-20T14:41:05;9.23;;;3.07;;
83429;SDS011;73362;50.952;6.952;2023-12-20T14:43:33;9.57;;;3.10;;